Time;durP1;ratioP1;P1;durP2;ratioP2;P2;SDS_P1;SDS_P2;PMS_P1;PMS_P2;Temp;Humidity;BMP_temperature;BMP_pressure;BME280_temperature;BME280_humidity;BME280_pressure;Samples;Min_cycle;Max_cycle;Signal;HPM_P1;HPM_P2
2022/04/27 00:00:33;;;;;;;17.10;6.25;;;8.30;99.90;;;;;;5068119;28;20424;-74
2022/04/27 00:03:00;;;;;;;11.73;5.60;;;8.40;99.90;;;;;;5067498;28;20446;-75
2022/04/27 00:05:26;;;;;;;12.88;5.57;;;8.50;99.90;;;;;;5068961;28;20427;-76
2022/04/27 00:07:52;;;;;;;10.70;5.30;;;8.60;99.90;;;;;;5068413;28;20421;-74
2022/04/27 00:10:21;;;;;;;14.33;5.27;;;8.60;99.90;;;;;;5068576;28;20928;-74
2022/04/27 00:12:48;;;;;;;9.20;4.40;;;8.60;99.90;;;;;;5072898;28;20450;-75
2022/04/27 00:15:14;;;;;;;10.07;5.00;;;8.40;99.90;;;;;;5071289;28;20504;-75
2022/04/27 00:17:40;;;;;;;9.70;4.63;;;8.40;99.90;;;;;;5065078;28;20415;-75
2022/04/27 00:20:07;;;;;;;12.57;5.47;;;8.40;99.90;;;;;;5078387;28;21086;-75
2022/04/27 00:22:35;;;;;;;9.82;5.18;;;8.30;99.90;;;;;;5075272;28;20427;-75
2022/04/27 00:25:02;;;;;;;9.02;4.50;;;8.50;99.90;;;;;;5068696;28;20436;-75
2022/04/27 00:27:29;;;;;;;6.30;4.07;;;8.60;99.90;;;;;;5067983;28;20424;-75
2022/04/27 00:29:56;;;;;;;7.53;4.70;;;8.60;99.90;;;;;;5078472;28;20788;-75
2022/04/27 00:32:21;;;;;;;12.57;5.15;;;8.60;99.90;;;;;;5068761;28;20427;-75
2022/04/27 00:34:47;;;;;;;8.73;4.75;;;8.70;99.90;;;;;;5069159;28;20778;-75
2022/04/27 00:37:12;;;;;;;10.63;5.43;;;8.70;99.90;;;;;;5067876;28;20419;-75
2022/04/27 00:39:38;;;;;;;7.50;4.43;;;8.70;99.90;;;;;;5083636;28;20425;-74
2022/04/27 00:42:14;;;;;;;9.17;4.30;;;8.70;99.90;;;;;;5064751;28;20498;-74
2022/04/27 00:44:43;;;;;;;9.65;4.45;;;8.70;99.90;;;;;;5072727;28;20463;-74
2022/04/27 00:47:14;;;;;;;9.55;4.15;;;8.70;99.90;;;;;;5064369;28;20453;-75
2022/04/27 00:49:43;;;;;;;7.63;3.53;;;8.80;99.90;;;;;;5077624;28;20777;-74
2022/04/27 00:52:13;;;;;;;9.75;4.22;;;8.80;99.90;;;;;;5066148;28;20422;-78
2022/04/27 00:54:44;;;;;;;6.65;3.88;;;8.60;99.90;;;;;;5068849;28;20469;-75
2022/04/27 00:57:09;;;;;;;7.88;3.80;;;8.60;99.90;;;;;;5067830;28;20416;-75
2022/04/27 00:59:36;;;;;;;5.53;3.20;;;8.70;99.90;;;;;;5068576;28;20894;-74
2022/04/27 01:02:04;;;;;;;9.50;3.80;;;8.80;99.90;;;;;;5066326;28;20793;-74
2022/04/27 01:04:32;;;;;;;6.75;3.17;;;8.80;99.90;;;;;;5069452;28;20743;-74
2022/04/27 01:06:58;;;;;;;9.07;3.63;;;8.80;99.90;;;;;;5045066;28;20428;-74
2022/04/27 01:09:25;;;;;;;7.23;2.87;;;8.80;99.90;;;;;;5069415;28;20453;-74
2022/04/27 01:11:51;;;;;;;8.02;3.42;;;8.80;99.90;;;;;;5079885;28;20410;-74
2022/04/27 01:14:17;;;;;;;9.27;3.72;;;8.90;99.90;;;;;;5068787;28;20820;-74
2022/04/27 01:16:42;;;;;;;7.80;4.27;;;8.80;99.90;;;;;;5072252;28;20410;-74
2022/04/27 01:19:08;;;;;;;9.93;4.20;;;8.70;99.90;;;;;;5070771;28;20904;-74
2022/04/27 01:21:33;;;;;;;9.43;4.57;;;8.60;99.90;;;;;;5072311;28;20427;-74
2022/04/27 01:24:00;;;;;;;8.53;4.27;;;8.60;99.90;;;;;;5076382;28;20909;-74
2022/04/27 01:26:26;;;;;;;9.18;4.03;;;8.60;99.90;;;;;;5061303;28;20510;-74
2022/04/27 01:28:51;;;;;;;7.95;4.82;;;8.50;99.90;;;;;;5072291;28;20428;-74
2022/04/27 01:31:17;;;;;;;8.55;4.50;;;8.60;99.90;;;;;;5069914;28;20849;-74
2022/04/27 01:33:43;;;;;;;7.10;3.97;;;8.60;99.90;;;;;;5074104;28;20923;-75
2022/04/27 01:36:10;;;;;;;7.90;3.85;;;8.60;99.90;;;;;;5072987;28;20468;-76
2022/04/27 01:38:40;;;;;;;9.20;4.57;;;8.50;99.90;;;;;;5068379;28;20423;-74
2022/04/27 01:41:06;;;;;;;8.07;4.53;;;8.50;99.90;;;;;;5064831;28;20464;-74
2022/04/27 01:43:33;;;;;;;7.50;4.07;;;8.60;99.90;;;;;;5067942;28;20920;-74
2022/04/27 01:45:58;;;;;;;6.72;3.78;;;8.50;99.90;;;;;;5067569;28;20691;-74
2022/04/27 01:48:26;;;;;;;5.88;3.60;;;8.50;99.90;;;;;;5068611;28;20539;-75
2022/04/27 01:50:52;;;;;;;10.50;4.20;;;8.50;99.90;;;;;;5071725;28;20435;-74
2022/04/27 01:56:03;;;;;;;7.15;3.35;;;8.50;99.90;;;;;;5072055;28;20753;-74
2022/04/27 01:58:28;;;;;;;8.55;3.50;;;8.60;99.90;;;;;;5070863;28;20442;-74
2022/04/27 02:00:54;;;;;;;8.40;3.30;;;8.60;99.90;;;;;;5071533;28;20418;-74
2022/04/27 02:03:21;;;;;;;7.32;3.75;;;8.60;99.90;;;;;;5070766;28;20439;-75
2022/04/27 02:05:50;;;;;;;5.18;3.10;;;8.60;99.90;;;;;;5066559;28;20469;-74
2022/04/27 02:08:16;;;;;;;5.97;2.70;;;8.60;99.90;;;;;;5067365;28;20439;-74
2022/04/27 02:10:42;;;;;;;4.93;1.80;;;8.60;99.90;;;;;;5066390;28;20435;-74
2022/04/27 02:13:09;;;;;;;4.85;1.85;;;8.60;99.90;;;;;;5069816;28;21548;-75
2022/04/27 02:15:36;;;;;;;6.60;2.10;;;8.70;99.90;;;;;;5071180;28;20430;-75
2022/04/27 02:18:02;;;;;;;4.93;2.22;;;8.60;99.90;;;;;;5070611;28;20434;-74
2022/04/27 02:20:28;;;;;;;5.15;2.53;;;8.80;99.90;;;;;;5052239;28;21494;-75
2022/04/27 02:22:55;;;;;;;5.22;1.90;;;8.70;99.90;;;;;;5065157;28;20412;-75
2022/04/27 02:25:22;;;;;;;4.35;2.10;;;8.70;99.90;;;;;;5073536;28;20512;-76
2022/04/27 02:27:49;;;;;;;7.55;2.78;;;8.70;99.90;;;;;;5076272;28;20910;-75
2022/04/27 02:30:16;;;;;;;7.90;2.40;;;8.70;99.90;;;;;;5069250;28;20435;-75
2022/04/27 02:32:42;;;;;;;7.27;3.07;;;8.70;99.90;;;;;;5082847;28;20540;-75
2022/04/27 02:35:08;;;;;;;5.70;2.28;;;8.70;99.90;;;;;;5087984;28;20934;-75
2022/04/27 02:37:34;;;;;;;6.22;2.50;;;8.60;99.90;;;;;;5068478;28;20419;-74
2022/04/27 02:40:00;;;;;;;7.70;3.05;;;8.70;99.90;;;;;;5070855;28;20428;-74
2022/04/27 02:42:26;;;;;;;6.82;2.80;;;8.70;99.90;;;;;;5068401;28;20476;-74
2022/04/27 02:44:52;;;;;;;6.43;2.50;;;8.80;99.90;;;;;;5067781;28;20431;-74
2022/04/27 02:47:18;;;;;;;8.40;2.55;;;8.70;99.90;;;;;;5086062;28;20413;-74
2022/04/27 02:52:29;;;;;;;5.10;2.70;;;8.70;99.90;;;;;;5068557;28;20463;-74
2022/04/27 02:54:55;;;;;;;5.75;2.92;;;8.80;99.90;;;;;;5068006;28;20458;-75
2022/04/27 02:57:21;;;;;;;3.97;2.40;;;8.70;99.90;;;;;;5066785;28;20426;-74
2022/04/27 02:59:47;;;;;;;6.82;2.92;;;8.80;99.90;;;;;;5069730;28;20423;-74
2022/04/27 03:02:13;;;;;;;5.75;2.10;;;8.80;99.90;;;;;;5069643;28;20481;-74
2022/04/27 03:04:39;;;;;;;5.90;2.00;;;8.80;99.90;;;;;;5074187;28;20442;-76
2022/04/27 03:07:05;;;;;;;6.28;2.60;;;8.80;99.90;;;;;;5076940;28;20441;-74
2022/04/27 03:09:31;;;;;;;5.65;2.47;;;8.80;99.90;;;;;;5073752;28;20452;-74
2022/04/27 03:11:57;;;;;;;3.88;2.00;;;8.70;99.90;;;;;;5089293;28;20915;-74
2022/04/27 03:14:22;;;;;;;5.40;3.08;;;8.70;99.90;;;;;;5071316;28;20423;-73
2022/04/27 03:16:52;;;;;;;6.57;3.10;;;8.70;99.90;;;;;;5079397;28;20433;-73
2022/04/27 03:19:19;;;;;;;6.82;2.33;;;8.80;99.90;;;;;;5055100;28;20775;-74
2022/04/27 03:21:44;;;;;;;5.70;2.40;;;8.80;99.90;;;;;;5061408;28;20545;-74
2022/04/27 03:24:10;;;;;;;5.83;2.60;;;8.70;99.90;;;;;;5068292;28;20514;-75
2022/04/27 03:26:36;;;;;;;6.20;1.97;;;8.70;99.90;;;;;;5066564;28;20482;-74
2022/04/27 03:29:03;;;;;;;4.67;2.07;;;8.70;99.90;;;;;;5069494;28;20434;-75
2022/04/27 03:31:29;;;;;;;5.07;2.08;;;8.70;99.90;;;;;;5078393;28;20482;-75
2022/04/27 03:33:55;;;;;;;5.55;2.33;;;8.70;99.90;;;;;;5072939;28;20789;-74
2022/04/27 03:36:20;;;;;;;7.00;2.92;;;8.70;99.90;;;;;;5067274;28;20423;-74
2022/04/27 03:38:48;;;;;;;4.28;2.00;;;8.70;99.90;;;;;;5078228;28;20460;-75
2022/04/27 03:41:17;;;;;;;7.68;2.65;;;8.70;99.90;;;;;;5079495;28;20852;-74
2022/04/27 03:43:43;;;;;;;8.25;2.85;;;8.70;99.90;;;;;;5074198;28;20440;-74
2022/04/27 03:46:08;;;;;;;6.22;2.55;;;8.80;99.90;;;;;;5076054;28;20424;-75
2022/04/27 03:48:34;;;;;;;3.63;1.77;;;8.70;99.90;;;;;;5066866;28;20520;-74
2022/04/27 03:51:00;;;;;;;5.53;1.87;;;8.70;99.90;;;;;;5069182;28;20451;-74
2022/04/27 03:53:25;;;;;;;5.37;2.80;;;8.70;99.90;;;;;;5069476;28;20423;-73
2022/04/27 03:55:51;;;;;;;4.80;2.37;;;8.70;99.90;;;;;;5073225;28;20549;-74
2022/04/27 03:58:16;;;;;;;7.65;2.60;;;8.70;99.90;;;;;;5068281;28;20428;-75
2022/04/27 04:00:42;;;;;;;6.20;2.37;;;8.60;99.90;;;;;;5072832;28;20431;-74
2022/04/27 04:03:07;;;;;;;5.60;2.27;;;8.60;99.90;;;;;;5086145;28;20509;-76
2022/04/27 04:05:33;;;;;;;4.37;2.00;;;8.70;99.90;;;;;;5075741;28;20502;-75
2022/04/27 04:07:59;;;;;;;5.00;1.90;;;8.60;99.90;;;;;;5081341;28;20488;-77
2022/04/27 04:10:25;;;;;;;6.25;2.05;;;8.70;99.90;;;;;;5068283;28;20759;-77
2022/04/27 04:12:50;;;;;;;3.30;2.25;;;8.60;99.90;;;;;;5075707;28;20417;-76
2022/04/27 04:15:16;;;;;;;7.85;2.60;;;8.50;99.90;;;;;;5070754;28;20455;-76
2022/04/27 04:17:45;;;;;;;4.30;2.38;;;8.60;99.90;;;;;;5069386;28;20438;-75
2022/04/27 04:20:15;;;;;;;5.47;2.47;;;8.60;99.90;;;;;;5069503;28;20925;-75
2022/04/27 04:22:45;;;;;;;4.13;2.78;;;8.60;99.90;;;;;;5072954;28;20431;-75
2022/04/27 04:30:40;;;;;;;7.97;3.58;;;8.50;99.90;;;;;;5068378;28;20500;-76
2022/04/27 04:33:06;;;;;;;4.37;2.90;;;8.60;99.90;;;;;;5067931;28;20415;-75
2022/04/27 04:35:32;;;;;;;5.47;3.20;;;8.50;99.90;;;;;;5084218;28;20466;-75
2022/04/27 04:37:58;;;;;;;5.65;3.00;;;8.50;99.90;;;;;;5061194;28;20421;-74
2022/04/27 04:40:23;;;;;;;8.50;2.80;;;8.50;99.90;;;;;;5071940;28;20975;-74
2022/04/27 04:42:49;;;;;;;6.17;2.90;;;8.60;99.90;;;;;;5089398;28;20849;-75
2022/04/27 04:45:15;;;;;;;8.63;2.83;;;8.60;99.90;;;;;;5072375;28;20457;-75
2022/04/27 04:47:42;;;;;;;5.13;2.53;;;8.70;99.90;;;;;;5076520;28;20430;-75
2022/04/27 04:50:09;;;;;;;3.90;1.90;;;8.80;99.90;;;;;;5071406;28;20431;-76
2022/04/27 04:52:34;;;;;;;6.65;2.63;;;8.80;99.90;;;;;;5067275;28;20439;-75
2022/04/27 04:55:00;;;;;;;4.47;1.98;;;8.70;99.90;;;;;;5069500;28;20439;-75
2022/04/27 04:57:26;;;;;;;3.97;2.00;;;8.70;99.90;;;;;;5067132;28;20423;-74
2022/04/27 04:59:51;;;;;;;3.33;1.90;;;8.80;99.90;;;;;;5063625;28;20758;-74
2022/04/27 05:02:17;;;;;;;3.40;1.50;;;8.80;99.90;;;;;;5077053;28;20904;-75
2022/04/27 05:04:42;;;;;;;3.83;2.00;;;8.80;99.90;;;;;;5069233;28;20490;-74
2022/04/27 05:07:08;;;;;;;2.88;1.83;;;8.80;99.90;;;;;;5082537;28;20430;-74
2022/04/27 05:09:34;;;;;;;4.50;1.60;;;8.70;99.90;;;;;;5074128;28;20514;-74
2022/04/27 05:12:00;;;;;;;4.83;2.17;;;8.70;99.90;;;;;;5073376;28;20422;-74
2022/04/27 05:14:26;;;;;;;4.70;2.20;;;8.80;99.90;;;;;;5077564;28;20428;-75
2022/04/27 05:16:51;;;;;;;3.22;2.08;;;8.80;99.90;;;;;;5073986;28;20422;-75
2022/04/27 05:19:17;;;;;;;4.88;2.60;;;8.70;99.90;;;;;;5063229;28;20457;-75
2022/04/27 05:21:42;;;;;;;6.20;2.93;;;8.70;99.90;;;;;;5057737;28;20419;-74
2022/04/27 05:24:08;;;;;;;7.13;3.37;;;8.60;99.90;;;;;;5068632;28;20413;-74
2022/04/27 05:26:34;;;;;;;6.47;3.30;;;8.70;99.90;;;;;;5077237;28;20463;-75
2022/04/27 05:31:57;;;;;;;8.90;3.30;;;8.90;99.90;;;;;;5067886;28;20486;-75
2022/04/27 05:34:24;;;;;;;4.78;2.47;;;8.90;99.90;;;;;;5069119;28;20435;-74
2022/04/27 05:36:50;;;;;;;6.55;2.97;;;8.90;99.90;;;;;;5079925;28;20447;-75
2022/04/27 05:39:18;;;;;;;5.57;2.42;;;9.00;99.90;;;;;;5072566;28;20849;-75
2022/04/27 05:41:44;;;;;;;5.15;2.78;;;9.00;99.90;;;;;;5066072;28;20472;-75
2022/04/27 05:44:12;;;;;;;6.50;2.80;;;9.00;99.90;;;;;;5066926;28;20427;-76
2022/04/27 05:46:37;;;;;;;5.22;2.75;;;9.00;99.90;;;;;;5082257;28;20412;-76
2022/04/27 05:49:03;;;;;;;7.88;2.60;;;9.10;99.90;;;;;;5071394;28;20455;-74
2022/04/27 05:51:29;;;;;;;5.43;2.40;;;9.10;99.90;;;;;;5069521;28;20818;-74
2022/04/27 05:53:55;;;;;;;4.28;2.63;;;9.10;99.90;;;;;;5056162;28;20429;-76
2022/04/27 05:56:20;;;;;;;6.47;2.70;;;9.10;99.90;;;;;;5076930;28;20424;-74
2022/04/27 05:58:46;;;;;;;5.73;3.10;;;9.20;99.90;;;;;;5070001;28;20434;-74
2022/04/27 06:01:12;;;;;;;5.30;2.47;;;9.20;99.90;;;;;;5076715;28;20780;-75
2022/04/27 06:03:38;;;;;;;5.27;2.20;;;9.20;99.90;;;;;;5085946;28;20909;-75
2022/04/27 06:06:04;;;;;;;7.22;3.20;;;9.20;99.90;;;;;;5081972;28;20464;-72
2022/04/27 06:08:30;;;;;;;6.90;2.90;;;9.30;99.90;;;;;;5069571;28;20430;-75
2022/04/27 06:10:55;;;;;;;5.37;2.70;;;9.30;99.90;;;;;;5069882;28;20560;-73
2022/04/27 06:13:21;;;;;;;4.32;2.13;;;9.30;99.90;;;;;;5067865;28;20423;-73
2022/04/27 06:15:47;;;;;;;4.60;2.65;;;9.30;99.90;;;;;;5073465;28;20781;-73
2022/04/27 06:18:12;;;;;;;4.93;2.30;;;9.40;99.90;;;;;;5074963;28;20426;-74
2022/04/27 06:20:38;;;;;;;5.17;2.60;;;9.40;99.90;;;;;;5076179;28;20442;-75
2022/04/27 06:23:03;;;;;;;6.10;2.70;;;9.40;99.90;;;;;;5074970;28;20516;-74
2022/04/27 06:25:30;;;;;;;3.67;2.40;;;9.40;99.90;;;;;;5067980;28;20423;-73
2022/04/27 06:27:56;;;;;;;4.93;2.55;;;9.40;99.90;;;;;;5068382;28;20424;-73
2022/04/27 06:30:21;;;;;;;6.63;2.47;;;9.40;99.90;;;;;;5073049;28;20435;-74
2022/04/27 06:32:47;;;;;;;5.20;2.65;;;9.40;99.90;;;;;;5068728;28;20449;-74
2022/04/27 06:35:13;;;;;;;4.80;2.53;;;9.60;99.90;;;;;;5085713;28;20931;-73
2022/04/27 06:37:42;;;;;;;5.17;2.80;;;9.60;99.90;;;;;;5091297;28;20764;-77
2022/04/27 06:40:09;;;;;;;5.28;2.80;;;9.70;99.90;;;;;;5071015;28;20777;-74
2022/04/27 06:42:35;;;;;;;6.47;2.70;;;9.70;99.90;;;;;;5076275;28;20454;-74
2022/04/27 06:45:02;;;;;;;6.38;2.42;;;9.80;99.90;;;;;;5086768;28;20457;-74
2022/04/27 06:47:27;;;;;;;5.20;2.13;;;9.80;99.90;;;;;;5089234;28;20401;-74
2022/04/27 06:49:53;;;;;;;6.70;2.60;;;9.90;99.90;;;;;;5067412;28;20442;-75
2022/04/27 06:52:18;;;;;;;5.90;1.95;;;10.00;99.90;;;;;;5054858;28;20415;-73
2022/04/27 06:54:44;;;;;;;8.70;2.37;;;10.10;99.90;;;;;;5070691;28;20422;-74
2022/04/27 06:57:09;;;;;;;5.47;2.13;;;10.10;99.90;;;;;;5087086;28;20759;-75
2022/04/27 06:59:35;;;;;;;5.30;2.00;;;10.20;99.90;;;;;;5069079;28;20473;-74
2022/04/27 07:02:02;;;;;;;4.50;1.88;;;10.20;99.90;;;;;;5067973;28;20951;-74
2022/04/27 07:04:29;;;;;;;8.10;2.50;;;10.20;99.90;;;;;;5072752;28;20467;-75
2022/04/27 07:06:55;;;;;;;5.90;2.23;;;10.30;99.90;;;;;;5068787;28;20433;-74
2022/04/27 07:09:21;;;;;;;3.93;1.97;;;10.30;99.90;;;;;;5077927;28;20435;-75
2022/04/27 07:11:47;;;;;;;7.13;2.40;;;10.20;99.90;;;;;;5070670;28;20427;-74
2022/04/27 07:14:16;;;;;;;5.57;2.72;;;10.30;99.90;;;;;;5079150;28;20447;-75
2022/04/27 07:16:42;;;;;;;5.50;2.70;;;10.20;99.90;;;;;;5067847;28;20778;-75
2022/04/27 07:19:08;;;;;;;8.25;1.95;;;10.50;99.90;;;;;;5072953;28;20443;-72
2022/04/27 07:21:33;;;;;;;7.23;1.90;;;10.50;99.90;;;;;;5073444;28;20893;-72
2022/04/27 07:24:02;;;;;;;4.95;1.90;;;10.50;99.90;;;;;;5065344;28;20431;-72
2022/04/27 07:26:28;;;;;;;7.45;2.78;;;10.20;99.90;;;;;;5066505;28;20415;-72
2022/04/27 07:28:55;;;;;;;7.43;2.63;;;10.40;99.90;;;;;;5061688;28;20500;-72
2022/04/27 07:31:22;;;;;;;5.07;2.00;;;10.60;99.90;;;;;;5058039;28;20419;-71
2022/04/27 07:33:47;;;;;;;4.55;2.33;;;10.50;99.90;;;;;;5065956;28;20419;-71
2022/04/27 07:36:13;;;;;;;7.93;2.03;;;10.60;99.90;;;;;;5069466;28;20846;-73
2022/04/27 07:38:39;;;;;;;5.22;2.30;;;10.70;99.90;;;;;;5063692;28;20510;-74
2022/04/27 07:41:06;;;;;;;9.57;2.97;;;10.70;99.90;;;;;;5080235;28;20981;-71
2022/04/27 07:43:31;;;;;;;6.65;1.95;;;10.90;99.90;;;;;;5065979;28;20477;-71
2022/04/27 07:45:57;;;;;;;7.30;2.40;;;10.80;99.90;;;;;;5066683;28;20427;-69
2022/04/27 07:48:23;;;;;;;7.20;2.07;;;10.70;99.90;;;;;;5069348;28;20442;-72
2022/04/27 07:50:48;;;;;;;5.80;1.60;;;10.80;99.90;;;;;;5085538;28;20429;-71
2022/04/27 07:53:14;;;;;;;5.70;1.67;;;10.70;99.90;;;;;;5080765;28;20825;-71
2022/04/27 07:55:40;;;;;;;10.82;2.58;;;10.90;99.90;;;;;;5081537;28;20425;-72
2022/04/27 07:58:06;;;;;;;5.65;1.30;;;10.90;99.90;;;;;;5076336;28;20424;-74
2022/04/27 08:00:31;;;;;;;5.53;1.63;;;11.10;99.90;;;;;;5074971;28;20439;-73
2022/04/27 08:02:57;;;;;;;6.68;1.85;;;11.00;99.90;;;;;;5088278;28;20437;-74
2022/04/27 08:05:23;;;;;;;5.60;2.10;;;10.90;99.90;;;;;;5070085;28;20831;-74
2022/04/27 08:07:48;;;;;;;5.35;1.52;;;10.90;99.90;;;;;;5067989;28;20906;-73
2022/04/27 08:10:20;;;;;;;6.43;2.03;;;11.00;99.90;;;;;;5059498;28;20435;-74
2022/04/27 08:12:48;;;;;;;5.32;1.98;;;11.00;99.90;;;;;;5069613;28;20482;-73
2022/04/27 08:15:15;;;;;;;6.85;2.65;;;11.10;99.90;;;;;;5067211;28;20518;-74
2022/04/27 08:17:56;;;;;;;7.45;2.58;;;10.90;99.90;;;;;;5037286;28;20773;-74
2022/04/27 08:23:11;;;;;;;13.10;3.10;;;10.80;99.90;;;;;;5080246;28;20410;-73
2022/04/27 08:25:38;;;;;;;16.50;3.75;;;10.60;99.90;;;;;;5081837;28;20816;-73
2022/04/27 08:28:08;;;;;;;12.90;3.35;;;10.60;99.90;;;;;;5080278;28;20416;-73
2022/04/27 08:30:39;;;;;;;15.90;3.53;;;10.40;99.90;;;;;;5072739;28;20798;-73
2022/04/27 08:33:05;;;;;;;12.90;2.80;;;10.30;99.90;;;;;;5069423;28;20423;-73
2022/04/27 08:35:32;;;;;;;12.02;3.03;;;10.40;99.90;;;;;;5066720;28;20428;-73
2022/04/27 08:37:59;;;;;;;14.20;3.17;;;10.40;99.90;;;;;;5069012;28;20403;-73
2022/04/27 08:40:25;;;;;;;14.23;3.47;;;10.40;99.90;;;;;;5069586;28;20465;-72
2022/04/27 08:42:51;;;;;;;11.85;2.70;;;10.30;99.90;;;;;;5074606;28;20455;-73
2022/04/27 08:45:18;;;;;;;13.20;3.33;;;10.30;99.90;;;;;;5067316;28;20434;-75
2022/04/27 08:47:45;;;;;;;16.02;3.72;;;10.10;99.90;;;;;;5066398;28;20913;-72
2022/04/27 08:50:20;;;;;;;12.30;2.67;;;10.20;99.90;;;;;;5073664;28;20782;-72
2022/04/27 08:52:46;;;;;;;15.13;3.80;;;10.10;99.90;;;;;;5067890;28;20980;-73
2022/04/27 08:55:13;;;;;;;15.27;3.50;;;10.30;99.90;;;;;;5064013;28;20917;-73
2022/04/27 08:57:39;;;;;;;12.15;4.13;;;10.40;99.90;;;;;;5076250;28;20457;-75
2022/04/27 09:00:08;;;;;;;9.88;2.50;;;10.30;99.90;;;;;;5080357;28;20852;-73
2022/04/27 09:02:34;;;;;;;13.15;3.08;;;10.30;99.90;;;;;;5077872;28;20911;-74
2022/04/27 09:05:07;;;;;;;11.77;3.03;;;10.30;99.90;;;;;;5066341;28;20503;-73
2022/04/27 09:07:37;;;;;;;15.85;4.18;;;10.50;99.90;;;;;;5068745;28;20411;-72
2022/04/27 09:10:04;;;;;;;11.30;2.58;;;10.60;99.90;;;;;;5076305;28;20480;-73
2022/04/27 09:12:29;;;;;;;16.88;4.45;;;10.50;99.90;;;;;;5086120;28;20517;-74
2022/04/27 09:15:05;;;;;;;18.90;3.87;;;10.30;99.90;;;;;;5074259;28;20419;-72
2022/04/27 09:23:03;;;;;;;13.65;3.70;;;10.40;99.90;;;;;;5064950;28;20419;-73
2022/04/27 09:25:33;;;;;;;11.80;2.83;;;10.60;99.90;;;;;;5070749;28;20486;-73
2022/04/27 09:28:03;;;;;;;11.95;3.40;;;10.60;99.90;;;;;;5076660;28;20430;-73
2022/04/27 09:30:31;;;;;;;10.63;2.90;;;10.80;99.90;;;;;;5091136;28;20957;-72
2022/04/27 09:32:57;;;;;;;12.30;3.47;;;10.90;99.90;;;;;;5080653;28;20419;-73
2022/04/27 09:35:34;;;;;;;8.85;2.60;;;10.80;99.90;;;;;;5071422;28;20433;-73
2022/04/27 09:38:14;;;;;;;17.95;3.75;;;10.80;99.90;;;;;;5072620;28;20436;-74
2022/04/27 09:40:54;;;;;;;13.43;3.38;;;10.90;99.90;;;;;;5066085;28;20434;-74
2022/04/27 09:43:46;;;;;;;10.40;3.10;;;10.80;99.90;;;;;;5063717;28;20423;-73
2022/04/27 09:46:25;;;;;;;16.15;3.35;;;10.70;99.90;;;;;;5054055;28;20948;-75
2022/04/27 09:49:11;;;;;;;11.13;2.60;;;10.60;99.90;;;;;;5067554;28;20415;-75
2022/04/27 09:51:47;;;;;;;10.30;2.97;;;10.70;99.90;;;;;;5038451;28;20430;-75
2022/04/27 09:54:20;;;;;;;10.10;2.27;;;10.70;99.90;;;;;;5073723;28;20442;-74
2022/04/27 09:56:57;;;;;;;13.55;3.65;;;11.00;99.90;;;;;;5087477;28;20419;-74
2022/04/27 09:59:30;;;;;;;11.77;3.50;;;10.80;99.90;;;;;;5075971;28;20429;-74
2022/04/27 10:01:58;;;;;;;11.57;2.33;;;10.70;99.90;;;;;;5066565;28;20485;-74
2022/04/27 10:04:28;;;;;;;14.40;3.70;;;10.90;99.90;;;;;;5077872;28;20425;-74
2022/04/27 10:07:00;;;;;;;8.65;2.90;;;11.00;99.90;;;;;;5068284;28;20429;-73
2022/04/27 10:09:30;;;;;;;7.82;2.17;;;11.30;99.90;;;;;;5067960;28;20425;-73
2022/04/27 10:11:57;;;;;;;14.93;2.90;;;11.50;99.90;;;;;;5069147;28;20431;-73
2022/04/27 10:14:25;;;;;;;10.05;2.80;;;11.50;99.90;;;;;;5072816;28;20430;-74
2022/04/27 10:16:51;;;;;;;11.02;2.78;;;11.20;99.90;;;;;;5068896;28;20442;-73
2022/04/27 10:19:17;;;;;;;12.43;2.45;;;11.50;99.90;;;;;;5076241;28;20437;-73
2022/04/27 10:21:57;;;;;;;12.30;3.42;;;11.30;99.90;;;;;;5078475;28;20413;-74
2022/04/27 10:24:35;;;;;;;11.17;2.77;;;11.80;99.90;;;;;;5069536;28;20923;-73
2022/04/27 10:27:20;;;;;;;11.35;2.90;;;11.70;99.90;;;;;;5070786;28;20412;-74
2022/04/27 10:29:50;;;;;;;11.10;3.13;;;11.70;99.90;;;;;;5077865;28;20428;-73
2022/04/27 10:32:43;;;;;;;13.20;3.75;;;11.60;99.90;;;;;;5058554;28;20913;-74
2022/04/27 10:35:12;;;;;;;14.85;3.70;;;11.60;99.90;;;;;;5079366;28;20519;-74
2022/04/27 10:37:47;;;;;;;16.48;3.45;;;11.60;99.90;;;;;;5085557;28;20480;-73
2022/04/27 10:40:37;;;;;;;10.90;3.08;;;11.90;99.90;;;;;;5077776;28;20433;-73
2022/04/27 10:43:03;;;;;;;9.95;2.78;;;12.50;99.90;;;;;;5061389;28;20431;-73
2022/04/27 10:45:28;;;;;;;11.93;2.90;;;12.70;99.90;;;;;;5079620;28;20449;-73
2022/04/27 10:47:54;;;;;;;10.70;2.60;;;12.70;99.90;;;;;;5058800;28;20442;-74
2022/04/27 10:50:23;;;;;;;10.30;3.53;;;12.90;99.90;;;;;;5068603;28;20585;-75
2022/04/27 10:52:55;;;;;;;14.87;3.23;;;12.90;99.90;;;;;;5065551;28;20459;-74
2022/04/27 10:55:35;;;;;;;12.00;2.95;;;12.60;99.90;;;;;;5075479;28;20422;-74
2022/04/27 10:58:18;;;;;;;14.77;3.90;;;12.80;99.90;;;;;;5067975;28;20463;-72
2022/04/27 11:01:02;;;;;;;8.30;2.30;;;12.60;99.90;;;;;;5079500;28;20508;-74
2022/04/27 11:03:35;;;;;;;8.40;2.50;;;12.30;99.90;;;;;;5071933;28;20424;-74
2022/04/27 11:06:05;;;;;;;7.13;2.00;;;12.70;99.90;;;;;;5069586;28;20422;-74
2022/04/27 11:09:07;;;;;;;9.23;2.83;;;13.00;99.90;;;;;;5071144;28;20412;-73
2022/04/27 11:11:32;;;;;;;9.98;2.30;;;12.90;99.90;;;;;;5075169;28;20431;-74
2022/04/27 11:14:04;;;;;;;8.37;2.00;;;12.40;99.90;;;;;;5072243;28;21017;-74
2022/04/27 11:16:42;;;;;;;12.23;2.78;;;12.80;99.90;;;;;;5068857;28;20476;-72
2022/04/27 11:19:07;;;;;;;8.70;2.53;;;12.10;99.90;;;;;;5081868;28;20909;-74
2022/04/27 11:21:33;;;;;;;10.27;2.05;;;12.10;99.90;;;;;;5073089;28;20441;-74
2022/04/27 11:24:04;;;;;;;9.52;3.20;;;11.80;99.90;;;;;;5090508;28;20519;-72
2022/04/27 11:26:31;;;;;;;10.50;2.67;;;12.10;99.90;;;;;;5083199;28;20414;-73
2022/04/27 11:28:57;;;;;;;12.60;3.05;;;12.40;99.90;;;;;;5062950;28;20435;-73
2022/04/27 11:31:23;;;;;;;9.37;2.50;;;12.60;99.90;;;;;;5075191;28;20426;-73
2022/04/27 11:33:49;;;;;;;12.37;3.47;;;12.40;99.90;;;;;;5087334;28;20426;-73
2022/04/27 11:36:22;;;;;;;12.07;2.42;;;12.20;99.90;;;;;;5075162;28;20789;-72
2022/04/27 11:38:48;;;;;;;14.38;3.00;;;12.10;99.90;;;;;;5068123;28;20793;-73
2022/04/27 11:41:19;;;;;;;9.18;2.30;;;12.30;99.90;;;;;;5080906;28;20497;-74
2022/04/27 11:43:49;;;;;;;14.50;2.85;;;12.10;99.90;;;;;;5064170;28;20510;-74
2022/04/27 11:46:15;;;;;;;13.65;3.10;;;11.90;99.90;;;;;;5064599;28;20432;-72
2022/04/27 11:48:49;;;;;;;12.60;2.90;;;11.80;99.90;;;;;;5068374;28;20427;-73
2022/04/27 11:51:15;;;;;;;8.10;2.00;;;12.20;99.90;;;;;;5066717;28;22104;-72
2022/04/27 11:53:42;;;;;;;8.05;3.17;;;12.30;99.90;;;;;;5080863;28;20422;-73
2022/04/27 11:56:09;;;;;;;14.30;2.88;;;12.00;99.90;;;;;;5080044;28;20490;-73
2022/04/27 11:58:34;;;;;;;10.90;2.53;;;12.20;99.90;;;;;;5078270;28;20419;-74
2022/04/27 12:01:00;;;;;;;10.13;2.53;;;12.40;99.90;;;;;;5069776;28;20483;-72
2022/04/27 12:03:28;;;;;;;11.90;2.95;;;12.40;99.90;;;;;;5072925;28;20434;-73
2022/04/27 12:05:55;;;;;;;7.88;2.75;;;12.60;99.90;;;;;;5062043;28;20430;-73
2022/04/27 12:08:23;;;;;;;9.77;3.38;;;12.40;99.90;;;;;;5069645;28;20411;-73
2022/04/27 12:10:49;;;;;;;8.97;2.33;;;12.60;99.90;;;;;;5057776;28;20518;-73
2022/04/27 12:13:20;;;;;;;8.63;2.55;;;12.60;99.90;;;;;;5068009;28;20427;-72
2022/04/27 12:15:49;;;;;;;13.90;2.78;;;12.70;99.90;;;;;;5074136;28;20847;-74
2022/04/27 12:18:19;;;;;;;13.68;2.90;;;12.40;99.90;;;;;;5082048;28;20515;-73
2022/04/27 12:20:48;;;;;;;9.37;2.30;;;12.70;99.90;;;;;;5072692;28;20431;-74
2022/04/27 12:23:37;;;;;;;9.27;2.97;;;12.60;99.90;;;;;;5078915;28;20419;-74
2022/04/27 12:26:03;;;;;;;15.02;4.13;;;12.90;99.90;;;;;;5067570;28;20990;-73
2022/04/27 12:28:32;;;;;;;10.85;2.13;;;12.70;99.90;;;;;;5068508;28;20473;-73
2022/04/27 12:31:04;;;;;;;10.15;2.85;;;12.90;99.90;;;;;;5057169;28;20446;-74
2022/04/27 12:33:35;;;;;;;10.48;2.78;;;13.00;99.90;;;;;;5066771;28;20426;-72
2022/04/27 12:39:03;;;;;;;11.30;3.05;;;12.90;99.90;;;;;;5054125;28;20429;-73
2022/04/27 12:41:33;;;;;;;8.75;2.35;;;12.90;99.90;;;;;;5055997;28;20994;-72
2022/04/27 12:44:09;;;;;;;10.35;2.65;;;12.80;99.90;;;;;;5055845;28;20421;-73
2022/04/27 12:46:37;;;;;;;10.02;2.70;;;13.00;99.90;;;;;;5059363;28;20477;-72
2022/04/27 12:49:06;;;;;;;11.88;3.00;;;13.20;99.90;;;;;;5053633;28;20422;-73
2022/04/27 12:51:35;;;;;;;11.35;3.03;;;13.20;99.90;;;;;;5055654;28;20435;-73
2022/04/27 12:54:05;;;;;;;12.20;3.33;;;13.40;99.90;;;;;;5048399;28;20444;-74
2022/04/27 12:56:35;;;;;;;8.02;2.08;;;13.40;99.90;;;;;;5049027;28;20508;-73
2022/04/27 12:59:11;;;;;;;11.73;2.95;;;13.20;99.90;;;;;;5047484;28;20425;-74
2022/04/27 13:01:37;;;;;;;8.40;2.40;;;13.20;99.90;;;;;;5059892;28;20428;-72
2022/04/27 13:04:03;;;;;;;6.72;2.33;;;13.30;99.90;;;;;;5063521;28;20434;-73
2022/04/27 13:06:32;;;;;;;8.13;2.95;;;13.40;99.90;;;;;;5052478;28;20933;-74
2022/04/27 13:11:55;;;;;;;11.85;2.97;;;13.20;99.90;;;;;;5042513;28;20934;-72
2022/04/27 13:14:21;;;;;;;8.37;2.00;;;13.10;99.90;;;;;;5043663;28;20452;-73
2022/04/27 13:16:47;;;;;;;9.35;2.78;;;13.40;99.90;;;;;;5049132;28;20421;-73
2022/04/27 13:19:12;;;;;;;8.87;2.63;;;13.30;99.90;;;;;;5052120;28;20436;-73